sensor_id;sensor_type;location;lat;lon;timestamp;pressure;altitude;pressure_sealevel;temperature;humidity
54308;BME280;40208;39.778;2.710;2023-04-21T00:02:43;100662.13;;;16.84;56.60
54308;BME280;40208;39.778;2.710;2023-04-21T00:05:30;100572.16;;;16.19;57.39
54308;BME280;40208;39.778;2.710;2023-04-21T00:08:15;100648.72;;;16.71;56.74
54308;BME280;40208;39.778;2.710;2023-04-21T00:11:01;100575.44;;;16.23;56.66
54308;BME280;40208;39.778;2.710;2023-04-21T00:13:47;100654.44;;;16.67;56.30
54308;BME280;40208;39.778;2.710;2023-04-21T00:16:32;100542.84;;;16.05;56.48
54308;BME280;40208;39.778;2.710;2023-04-21T00:19:18;100559.31;;;16.11;55.80
54308;BME280;40208;39.778;2.710;2023-04-21T00:22:03;100662.75;;;16.75;55.08
54308;BME280;40208;39.778;2.710;2023-04-21T00:24:47;100581.22;;;16.29;54.30
54308;BME280;40208;39.778;2.710;2023-04-21T00:27:33;100556.13;;;16.06;54.15
54308;BME280;40208;39.778;2.710;2023-04-21T00:30:18;100589.50;;;16.26;51.71
54308;BME280;40208;39.778;2.710;2023-04-21T00:33:02;100624.44;;;16.62;53.69
54308;BME280;40208;39.778;2.710;2023-04-21T00:35:47;100620.59;;;16.53;53.78
54308;BME280;40208;39.778;2.710;2023-04-21T00:38:32;100647.56;;;16.63;54.93
54308;BME280;40208;39.778;2.710;2023-04-21T00:41:17;100641.59;;;16.59;52.54
54308;BME280;40208;39.778;2.710;2023-04-21T00:44:08;100601.44;;;16.46;52.73
54308;BME280;40208;39.778;2.710;2023-04-21T00:46:53;100647.06;;;16.58;52.81
54308;BME280;40208;39.778;2.710;2023-04-21T00:49:38;100621.25;;;16.57;52.52
54308;BME280;40208;39.778;2.710;2023-04-21T00:52:23;100531.28;;;15.92;50.37
54308;BME280;40208;39.778;2.710;2023-04-21T00:55:09;100586.03;;;16.37;50.84
54308;BME280;40208;39.778;2.710;2023-04-21T00:57:54;100593.00;;;16.40;53.37
54308;BME280;40208;39.778;2.710;2023-04-21T01:00:40;100473.31;;;15.66;51.30
54308;BME280;40208;39.778;2.710;2023-04-21T01:03:26;100585.72;;;16.29;52.80
54308;BME280;40208;39.778;2.710;2023-04-21T01:06:12;100571.06;;;16.22;53.74
54308;BME280;40208;39.778;2.710;2023-04-21T01:08:57;100599.50;;;16.48;53.08
54308;BME280;40208;39.778;2.710;2023-04-21T01:12:05;100580.22;;;16.43;50.90
54308;BME280;40208;39.778;2.710;2023-04-21T01:14:50;100635.38;;;16.59;52.36
54308;BME280;40208;39.778;2.710;2023-04-21T01:17:35;100625.38;;;16.61;52.84
54308;BME280;40208;39.778;2.710;2023-04-21T01:20:22;100575.13;;;16.27;51.54
54308;BME280;40208;39.778;2.710;2023-04-21T01:23:09;100448.38;;;15.53;51.60
54308;BME280;40208;39.778;2.710;2023-04-21T01:25:54;100522.09;;;15.96;52.25
54308;BME280;40208;39.778;2.710;2023-04-21T01:28:39;100608.59;;;16.59;52.00
54308;BME280;40208;39.778;2.710;2023-04-21T01:31:24;100449.56;;;15.49;53.09
54308;BME280;40208;39.778;2.710;2023-04-21T01:34:10;100616.56;;;16.35;53.69
54308;BME280;40208;39.778;2.710;2023-04-21T01:36:55;100609.69;;;16.43;51.61
54308;BME280;40208;39.778;2.710;2023-04-21T01:39:43;100530.78;;;15.86;51.28
54308;BME280;40208;39.778;2.710;2023-04-21T01:42:29;100569.38;;;16.08;52.30
54308;BME280;40208;39.778;2.710;2023-04-21T01:45:15;100592.16;;;16.26;51.39
54308;BME280;40208;39.778;2.710;2023-04-21T01:48:00;100588.59;;;16.39;50.73
54308;BME280;40208;39.778;2.710;2023-04-21T01:50:45;100586.09;;;16.48;49.50
54308;BME280;40208;39.778;2.710;2023-04-21T01:53:30;100597.28;;;16.42;50.86
54308;BME280;40208;39.778;2.710;2023-04-21T01:56:15;100391.97;;;15.19;49.92
54308;BME280;40208;39.778;2.710;2023-04-21T01:59:00;100527.78;;;15.91;48.78
54308;BME280;40208;39.778;2.710;2023-04-21T02:01:46;100489.22;;;15.68;50.68
54308;BME280;40208;39.778;2.710;2023-04-21T02:04:31;100470.22;;;15.60;51.72
54308;BME280;40208;39.778;2.710;2023-04-21T02:07:16;100559.63;;;16.20;49.76
54308;BME280;40208;39.778;2.710;2023-04-21T02:10:01;100582.50;;;16.37;49.54
54308;BME280;40208;39.778;2.710;2023-04-21T02:12:46;100417.38;;;15.51;49.64
54308;BME280;40208;39.778;2.710;2023-04-21T02:15:31;100541.53;;;16.10;50.05
54308;BME280;40208;39.778;2.710;2023-04-21T02:18:16;100617.69;;;16.56;50.89
54308;BME280;40208;39.778;2.710;2023-04-21T02:21:01;100592.22;;;16.50;49.05
54308;BME280;40208;39.778;2.710;2023-04-21T02:23:46;100527.06;;;16.13;50.43
54308;BME280;40208;39.778;2.710;2023-04-21T02:26:31;100398.06;;;15.21;50.29
54308;BME280;40208;39.778;2.710;2023-04-21T02:29:16;100587.38;;;16.56;49.00
54308;BME280;40208;39.778;2.710;2023-04-21T02:32:00;100538.56;;;16.39;49.14
54308;BME280;40208;39.778;2.710;2023-04-21T02:34:45;100467.25;;;16.01;48.53
54308;BME280;40208;39.778;2.710;2023-04-21T02:37:30;100496.53;;;16.16;47.09
54308;BME280;40208;39.778;2.710;2023-04-21T02:40:15;100594.69;;;16.78;45.65
54308;BME280;40208;39.778;2.710;2023-04-21T02:43:00;100580.03;;;16.70;46.66
54308;BME280;40208;39.778;2.710;2023-04-21T02:45:46;100430.38;;;15.81;45.96
54308;BME280;40208;39.778;2.710;2023-04-21T02:48:31;100468.22;;;16.00;44.99
54308;BME280;40208;39.778;2.710;2023-04-21T02:51:16;100400.09;;;15.67;45.84
54308;BME280;40208;39.778;2.710;2023-04-21T02:54:01;100530.81;;;16.47;46.45
54308;BME280;40208;39.778;2.710;2023-04-21T02:56:49;100566.41;;;16.73;47.07
54308;BME280;40208;39.778;2.710;2023-04-21T02:59:35;100506.81;;;16.22;48.38
54308;BME280;40208;39.778;2.710;2023-04-21T03:02:23;100578.81;;;16.74;46.32
54308;BME280;40208;39.778;2.710;2023-04-21T03:05:09;100554.44;;;16.66;46.97
54308;BME280;40208;39.778;2.710;2023-04-21T03:07:54;100596.94;;;16.84;47.53
54308;BME280;40208;39.778;2.710;2023-04-21T03:10:39;100588.78;;;16.85;46.50
54308;BME280;40208;39.778;2.710;2023-04-21T03:13:23;100546.25;;;16.44;47.34
54308;BME280;40208;39.778;2.710;2023-04-21T03:16:10;100512.25;;;16.33;46.79
54308;BME280;40208;39.778;2.710;2023-04-21T03:18:55;100582.25;;;16.77;46.41
54308;BME280;40208;39.778;2.710;2023-04-21T03:21:40;100518.72;;;16.42;46.94
54308;BME280;40208;39.778;2.710;2023-04-21T03:24:26;100496.16;;;16.33;45.18
54308;BME280;40208;39.778;2.710;2023-04-21T03:27:11;100578.06;;;16.85;46.70
54308;BME280;40208;39.778;2.710;2023-04-21T03:29:56;100575.53;;;16.71;44.76
54308;BME280;40208;39.778;2.710;2023-04-21T03:32:41;100454.84;;;16.00;46.71
54308;BME280;40208;39.778;2.710;2023-04-21T03:35:25;100509.09;;;16.39;44.10
54308;BME280;40208;39.778;2.710;2023-04-21T03:38:11;100236.47;;;14.76;44.73
54308;BME280;40208;39.778;2.710;2023-04-21T03:40:56;100576.69;;;16.80;45.72
54308;BME280;40208;39.778;2.710;2023-04-21T03:43:42;100509.41;;;16.47;43.48
54308;BME280;40208;39.778;2.710;2023-04-21T03:46:26;100508.41;;;16.48;44.77
54308;BME280;40208;39.778;2.710;2023-04-21T03:49:11;100463.13;;;16.21;45.24
54308;BME280;40208;39.778;2.710;2023-04-21T03:51:56;100576.38;;;16.71;44.87
54308;BME280;40208;39.778;2.710;2023-04-21T03:54:41;100576.56;;;16.81;45.99
54308;BME280;40208;39.778;2.710;2023-04-21T03:57:26;100391.03;;;15.70;47.31
54308;BME280;40208;39.778;2.710;2023-04-21T04:00:12;100572.31;;;16.79;46.57
54308;BME280;40208;39.778;2.710;2023-04-21T04:02:57;100544.28;;;16.59;46.53
54308;BME280;40208;39.778;2.710;2023-04-21T04:05:42;100550.56;;;16.70;47.01
54308;BME280;40208;39.778;2.710;2023-04-21T04:08:27;100577.00;;;16.75;45.82
54308;BME280;40208;39.778;2.710;2023-04-21T04:11:12;100565.56;;;16.73;43.65
54308;BME280;40208;39.778;2.710;2023-04-21T04:13:59;100302.56;;;15.11;44.21
54308;BME280;40208;39.778;2.710;2023-04-21T04:16:45;100500.44;;;16.36;41.83
54308;BME280;40208;39.778;2.710;2023-04-21T04:19:33;100363.81;;;15.63;41.61
54308;BME280;40208;39.778;2.710;2023-04-21T04:22:18;100508.41;;;16.48;40.99
54308;BME280;40208;39.778;2.710;2023-04-21T04:25:03;100554.84;;;16.73;39.36
54308;BME280;40208;39.778;2.710;2023-04-21T04:27:49;100536.28;;;16.70;39.93
54308;BME280;40208;39.778;2.710;2023-04-21T04:30:34;100525.81;;;16.67;39.63
54308;BME280;40208;39.778;2.710;2023-04-21T04:33:19;100525.69;;;16.68;40.59
54308;BME280;40208;39.778;2.710;2023-04-21T04:36:04;100499.78;;;16.56;40.13
54308;BME280;40208;39.778;2.710;2023-04-21T04:38:50;100449.59;;;16.23;39.83
54308;BME280;40208;39.778;2.710;2023-04-21T04:41:35;100561.91;;;16.98;39.03
54308;BME280;40208;39.778;2.710;2023-04-21T04:44:21;100447.13;;;16.32;38.70
54308;BME280;40208;39.778;2.710;2023-04-21T04:47:07;100393.72;;;15.94;38.50
54308;BME280;40208;39.778;2.710;2023-04-21T04:49:52;100454.41;;;16.30;38.43
54308;BME280;40208;39.778;2.710;2023-04-21T04:52:37;100540.88;;;16.81;37.23
54308;BME280;40208;39.778;2.710;2023-04-21T04:55:22;100577.53;;;17.04;38.46
54308;BME280;40208;39.778;2.710;2023-04-21T04:58:08;100449.25;;;16.27;38.08
54308;BME280;40208;39.778;2.710;2023-04-21T05:00:53;100465.28;;;16.40;38.55
54308;BME280;40208;39.778;2.710;2023-04-21T05:03:38;100451.16;;;16.38;38.31
54308;BME280;40208;39.778;2.710;2023-04-21T05:06:29;100576.44;;;17.07;38.38
54308;BME280;40208;39.778;2.710;2023-04-21T05:09:15;100370.19;;;15.86;37.65
54308;BME280;40208;39.778;2.710;2023-04-21T05:12:00;100368.09;;;15.79;37.31
54308;BME280;40208;39.778;2.710;2023-04-21T05:14:46;100450.50;;;16.35;37.73
54308;BME280;40208;39.778;2.710;2023-04-21T05:17:32;100376.19;;;15.90;39.40
54308;BME280;40208;39.778;2.710;2023-04-21T05:20:18;100556.53;;;16.98;39.74
54308;BME280;40208;39.778;2.710;2023-04-21T05:23:03;100555.28;;;16.91;39.09
54308;BME280;40208;39.778;2.710;2023-04-21T05:25:48;100603.06;;;17.21;39.24
54308;BME280;40208;39.778;2.710;2023-04-21T05:28:33;100593.31;;;17.20;38.06
54308;BME280;40208;39.778;2.710;2023-04-21T05:31:19;100454.84;;;16.48;38.81
54308;BME280;40208;39.778;2.710;2023-04-21T05:34:07;100569.91;;;17.11;38.13
54308;BME280;40208;39.778;2.710;2023-04-21T05:36:55;100488.75;;;16.61;38.53
54308;BME280;40208;39.778;2.710;2023-04-21T05:39:40;100594.34;;;17.30;39.21
54308;BME280;40208;39.778;2.710;2023-04-21T05:42:28;100288.25;;;15.48;36.46
54308;BME280;40208;39.778;2.710;2023-04-21T05:45:13;100346.19;;;15.74;38.24
54308;BME280;40208;39.778;2.710;2023-04-21T05:47:58;100441.28;;;16.39;36.85
54308;BME280;40208;39.778;2.710;2023-04-21T05:50:43;100589.81;;;17.31;36.35
54308;BME280;40208;39.778;2.710;2023-04-21T05:53:28;100410.75;;;16.17;36.78
54308;BME280;40208;39.778;2.710;2023-04-21T05:56:15;100611.88;;;17.34;37.21
54308;BME280;40208;39.778;2.710;2023-04-21T05:59:00;100096.72;;;14.38;37.18
54308;BME280;40208;39.778;2.710;2023-04-21T06:01:45;100331.63;;;15.65;36.97
54308;BME280;40208;39.778;2.710;2023-04-21T06:04:30;100451.41;;;16.46;36.50
54308;BME280;40208;39.778;2.710;2023-04-21T06:07:15;100453.00;;;16.49;36.71
54308;BME280;40208;39.778;2.710;2023-04-21T06:10:04;100148.91;;;14.42;37.78
54308;BME280;40208;39.778;2.710;2023-04-21T06:12:50;100127.66;;;14.54;38.08
54308;BME280;40208;39.778;2.710;2023-04-21T06:15:38;100138.03;;;14.46;38.68
54308;BME280;40208;39.778;2.710;2023-04-21T06:18:27;100452.06;;;16.50;39.58
54308;BME280;40208;39.778;2.710;2023-04-21T06:21:12;100448.19;;;16.54;39.24
54308;BME280;40208;39.778;2.710;2023-04-21T06:23:57;100390.13;;;16.30;39.50
54308;BME280;40208;39.778;2.710;2023-04-21T06:26:44;100195.09;;;15.18;39.11
54308;BME280;40208;39.778;2.710;2023-04-21T06:29:37;100206.13;;;15.14;39.28
54308;BME280;40208;39.778;2.710;2023-04-21T06:32:26;100515.38;;;17.10;39.49
54308;BME280;40208;39.778;2.710;2023-04-21T06:35:11;100403.72;;;16.51;38.73
54308;BME280;40208;39.778;2.710;2023-04-21T06:37:58;100582.78;;;17.52;39.17
54308;BME280;40208;39.778;2.710;2023-04-21T06:40:43;100445.66;;;16.64;38.66
54308;BME280;40208;39.778;2.710;2023-04-21T06:43:28;100494.03;;;16.98;38.78
54308;BME280;40208;39.778;2.710;2023-04-21T06:46:14;100634.56;;;17.77;38.96
54308;BME280;40208;39.778;2.710;2023-04-21T06:48:59;100625.34;;;17.81;38.29
54308;BME280;40208;39.778;2.710;2023-04-21T06:51:44;100621.88;;;17.79;38.08
54308;BME280;40208;39.778;2.710;2023-04-21T06:54:29;100542.53;;;17.30;38.18
54308;BME280;40208;39.778;2.710;2023-04-21T06:57:13;100636.06;;;17.81;38.49
54308;BME280;40208;39.778;2.710;2023-04-21T06:59:59;100622.72;;;17.79;38.42
54308;BME280;40208;39.778;2.710;2023-04-21T07:02:44;100632.66;;;17.90;38.31
54308;BME280;40208;39.778;2.710;2023-04-21T07:05:28;100492.84;;;17.02;39.10
54308;BME280;40208;39.778;2.710;2023-04-21T07:08:14;100537.72;;;17.22;39.36
54308;BME280;40208;39.778;2.710;2023-04-21T07:10:59;100537.88;;;17.32;38.32
54308;BME280;40208;39.778;2.710;2023-04-21T07:13:44;100605.53;;;17.71;37.45
54308;BME280;40208;39.778;2.710;2023-04-21T07:16:29;100485.53;;;17.04;37.93
54308;BME280;40208;39.778;2.710;2023-04-21T07:19:14;100530.91;;;17.29;39.40
54308;BME280;40208;39.778;2.710;2023-04-21T07:21:58;100503.34;;;17.27;39.55
54308;BME280;40208;39.778;2.710;2023-04-21T07:24:43;100582.47;;;17.68;40.35
54308;BME280;40208;39.778;2.710;2023-04-21T07:27:28;100488.47;;;17.12;39.17
54308;BME280;40208;39.778;2.710;2023-04-21T07:30:13;100472.13;;;17.15;39.34
54308;BME280;40208;39.778;2.710;2023-04-21T07:32:58;100645.75;;;18.29;38.76
54308;BME280;40208;39.778;2.710;2023-04-21T07:35:43;100592.41;;;17.90;38.19
54308;BME280;40208;39.778;2.710;2023-04-21T07:38:27;100385.25;;;16.71;37.80
54308;BME280;40208;39.778;2.710;2023-04-21T07:41:13;100678.00;;;18.51;39.52
54308;BME280;40208;39.778;2.710;2023-04-21T07:43:57;100397.38;;;16.88;38.09
54308;BME280;40208;39.778;2.710;2023-04-21T07:46:42;100651.59;;;18.56;38.71
54308;BME280;40208;39.778;2.710;2023-04-21T07:49:26;100574.94;;;18.18;38.41
54308;BME280;40208;39.778;2.710;2023-04-21T07:52:11;100376.31;;;16.83;38.59
54308;BME280;40208;39.778;2.710;2023-04-21T07:58:33;100589.31;;;18.40;39.85
54308;BME280;40208;39.778;2.710;2023-04-21T08:01:18;100246.63;;;16.28;40.21
54308;BME280;40208;39.778;2.710;2023-04-21T08:04:03;100673.31;;;18.98;41.49
54308;BME280;40208;39.778;2.710;2023-04-21T08:13:07;100480.84;;;17.97;40.90
54308;BME280;40208;39.778;2.710;2023-04-21T08:15:53;100667.78;;;19.11;40.77
54308;BME280;40208;39.778;2.710;2023-04-21T08:18:37;100547.75;;;18.55;40.20
54308;BME280;40208;39.778;2.710;2023-04-21T08:21:22;100648.44;;;19.17;40.02
54308;BME280;40208;39.778;2.710;2023-04-21T08:24:08;100674.97;;;19.43;39.38
54308;BME280;40208;39.778;2.710;2023-04-21T08:26:53;100655.56;;;19.39;39.79
54308;BME280;40208;39.778;2.710;2023-04-21T08:29:38;100630.69;;;19.15;39.53
54308;BME280;40208;39.778;2.710;2023-04-21T08:32:23;100589.59;;;18.92;40.21
54308;BME280;40208;39.778;2.710;2023-04-21T08:35:08;100684.59;;;19.57;40.61
54308;BME280;40208;39.778;2.710;2023-04-21T08:37:52;100663.78;;;19.59;40.22
54308;BME280;40208;39.778;2.710;2023-04-21T08:40:37;100629.94;;;19.45;40.54
54308;BME280;40208;39.778;2.710;2023-04-21T08:43:22;100692.78;;;19.87;40.59
54308;BME280;40208;39.778;2.710;2023-04-21T08:46:08;100708.22;;;19.85;41.63
54308;BME280;40208;39.778;2.710;2023-04-21T08:48:52;100689.91;;;19.79;42.03
54308;BME280;40208;39.778;2.710;2023-04-21T08:51:37;100648.34;;;19.61;41.00
54308;BME280;40208;39.778;2.710;2023-04-21T08:54:22;100684.91;;;19.96;40.17
54308;BME280;40208;39.778;2.710;2023-04-21T08:57:07;100724.50;;;20.05;40.62
54308;BME280;40208;39.778;2.710;2023-04-21T08:59:52;100630.16;;;19.53;41.28
54308;BME280;40208;39.778;2.710;2023-04-21T09:02:52;100564.22;;;19.26;40.79
54308;BME280;40208;39.778;2.710;2023-04-21T09:05:38;100608.25;;;19.58;41.82
54308;BME280;40208;39.778;2.710;2023-04-21T09:08:23;100561.88;;;19.33;42.49
54308;BME280;40208;39.778;2.710;2023-04-21T09:11:12;100552.84;;;19.34;43.22
54308;BME280;40208;39.778;2.710;2023-04-21T09:13:57;100700.56;;;20.32;43.87
54308;BME280;40208;39.778;2.710;2023-04-21T09:16:42;100692.03;;;20.27;44.40
54308;BME280;40208;39.778;2.710;2023-04-21T09:19:28;100602.16;;;19.77;44.84
54308;BME280;40208;39.778;2.710;2023-04-21T09:22:16;100639.88;;;20.07;46.16
54308;BME280;40208;39.778;2.710;2023-04-21T09:25:01;100662.81;;;20.32;45.45
54308;BME280;40208;39.778;2.710;2023-04-21T09:27:46;100700.38;;;20.55;45.80
54308;BME280;40208;39.778;2.710;2023-04-21T09:30:34;100704.06;;;20.54;46.30
54308;BME280;40208;39.778;2.710;2023-04-21T09:33:19;100563.38;;;19.89;46.49
54308;BME280;40208;39.778;2.710;2023-04-21T09:36:04;100607.88;;;20.24;46.93
54308;BME280;40208;39.778;2.710;2023-04-21T09:38:58;100613.47;;;20.32;47.17
54308;BME280;40208;39.778;2.710;2023-04-21T09:41:43;100576.56;;;20.32;47.72
54308;BME280;40208;39.778;2.710;2023-04-21T09:44:28;100639.28;;;20.65;48.11
54308;BME280;40208;39.778;2.710;2023-04-21T09:47:13;100604.13;;;20.46;48.85
54308;BME280;40208;39.778;2.710;2023-04-21T09:49:58;100698.44;;;21.07;49.02
54308;BME280;40208;39.778;2.710;2023-04-21T09:52:45;100690.88;;;21.01;49.84
54308;BME280;40208;39.778;2.710;2023-04-21T09:55:33;100634.91;;;20.74;50.20
54308;BME280;40208;39.778;2.710;2023-04-21T09:58:21;100578.34;;;20.53;50.83
54308;BME280;40208;39.778;2.710;2023-04-21T10:01:08;100654.25;;;20.99;50.68
54308;BME280;40208;39.778;2.710;2023-04-21T10:03:54;100648.84;;;21.08;50.24
54308;BME280;40208;39.778;2.710;2023-04-21T10:06:38;100455.03;;;19.85;50.67
54308;BME280;40208;39.778;2.710;2023-04-21T10:09:29;100543.09;;;20.45;50.17
54308;BME280;40208;39.778;2.710;2023-04-21T10:12:15;100720.22;;;21.54;50.62
54308;BME280;40208;39.778;2.710;2023-04-21T10:15:03;100717.81;;;21.61;50.32
54308;BME280;40208;39.778;2.710;2023-04-21T10:17:49;100599.84;;;20.93;49.87
54308;BME280;40208;39.778;2.710;2023-04-21T10:20:52;100723.09;;;21.63;50.23
54308;BME280;40208;39.778;2.710;2023-04-21T10:23:45;100694.38;;;21.42;50.71
54308;BME280;40208;39.778;2.710;2023-04-21T10:26:34;100684.69;;;21.39;50.87
54308;BME280;40208;39.778;2.710;2023-04-21T10:29:28;100593.75;;;20.82;50.15
54308;BME280;40208;39.778;2.710;2023-04-21T10:32:30;100469.44;;;20.15;49.44
54308;BME280;40208;39.778;2.710;2023-04-21T10:35:21;100650.16;;;21.24;48.19
54308;BME280;40208;39.778;2.710;2023-04-21T10:38:06;100665.81;;;21.39;48.57
54308;BME280;40208;39.778;2.710;2023-04-21T10:40:51;100636.94;;;21.30;48.31
54308;BME280;40208;39.778;2.710;2023-04-21T10:43:43;100691.94;;;21.68;48.61
54308;BME280;40208;39.778;2.710;2023-04-21T10:46:35;100723.22;;;21.80;48.78
54308;BME280;40208;39.778;2.710;2023-04-21T10:49:20;100733.31;;;21.88;48.99
54308;BME280;40208;39.778;2.710;2023-04-21T10:52:07;100670.94;;;21.52;49.42
54308;BME280;40208;39.778;2.710;2023-04-21T10:57:41;100623.72;;;21.47;49.30
54308;BME280;40208;39.778;2.710;2023-04-21T11:00:26;100611.94;;;21.38;49.74
54308;BME280;40208;39.778;2.710;2023-04-21T11:03:11;100707.00;;;22.00;49.83
54308;BME280;40208;39.778;2.710;2023-04-21T11:05:56;100710.06;;;22.15;50.18
54308;BME280;40208;39.778;2.710;2023-04-21T11:08:56;100616.19;;;21.60;50.39
54308;BME280;40208;39.778;2.710;2023-04-21T11:11:41;100525.88;;;21.06;50.08
54308;BME280;40208;39.778;2.710;2023-04-21T11:14:26;100553.09;;;21.32;50.21
54308;BME280;40208;39.778;2.710;2023-04-21T11:17:15;100689.75;;;22.20;50.47
54308;BME280;40208;39.778;2.710;2023-04-21T11:20:01;100586.91;;;21.65;50.28
54308;BME280;40208;39.778;2.710;2023-04-21T11:22:51;100404.50;;;20.57;50.65
54308;BME280;40208;39.778;2.710;2023-04-21T11:25:36;100687.84;;;22.40;51.22
54308;BME280;40208;39.778;2.710;2023-04-21T11:28:21;100605.72;;;21.94;51.63
54308;BME280;40208;39.778;2.710;2023-04-21T11:31:06;100719.41;;;22.77;51.84
54308;BME280;40208;39.778;2.710;2023-04-21T11:33:51;100640.72;;;22.43;51.27
54308;BME280;40208;39.778;2.710;2023-04-21T11:36:39;100607.22;;;22.26;49.92
54308;BME280;40208;39.778;2.710;2023-04-21T11:39:24;100705.94;;;22.95;50.17
54308;BME280;40208;39.778;2.710;2023-04-21T11:42:09;100617.13;;;22.35;50.86
54308;BME280;40208;39.778;2.710;2023-04-21T11:44:55;100731.13;;;23.05;50.55
54308;BME280;40208;39.778;2.710;2023-04-21T11:47:40;100634.03;;;22.65;50.23
54308;BME280;40208;39.778;2.710;2023-04-21T11:50:29;100692.22;;;22.97;50.19
54308;BME280;40208;39.778;2.710;2023-04-21T11:53:16;100648.31;;;22.57;50.26
54308;BME280;40208;39.778;2.710;2023-04-21T11:56:01;100687.56;;;22.71;51.16
54308;BME280;40208;39.778;2.710;2023-04-21T11:58:48;100724.94;;;23.13;51.13
54308;BME280;40208;39.778;2.710;2023-04-21T12:01:34;100485.38;;;21.72;50.10
54308;BME280;40208;39.778;2.710;2023-04-21T12:04:23;100703.91;;;23.07;49.66
54308;BME280;40208;39.778;2.710;2023-04-21T12:07:08;100734.72;;;23.24;49.15
54308;BME280;40208;39.778;2.710;2023-04-21T12:09:53;100538.28;;;22.30;49.19
54308;BME280;40208;39.778;2.710;2023-04-21T12:12:39;100725.50;;;23.35;49.76
54308;BME280;40208;39.778;2.710;2023-04-21T12:15:24;100638.28;;;22.95;48.61
54308;BME280;40208;39.778;2.710;2023-04-21T12:18:12;100728.31;;;23.43;49.93
54308;BME280;40208;39.778;2.710;2023-04-21T12:21:00;100656.88;;;23.08;50.05
54308;BME280;40208;39.778;2.710;2023-04-21T12:23:45;100623.94;;;22.85;48.45
54308;BME280;40208;39.778;2.710;2023-04-21T12:26:30;100594.16;;;22.67;49.10
54308;BME280;40208;39.778;2.710;2023-04-21T12:29:14;100661.47;;;22.98;48.80
54308;BME280;40208;39.778;2.710;2023-04-21T12:31:59;100592.97;;;22.52;49.53
54308;BME280;40208;39.778;2.710;2023-04-21T12:34:44;100689.66;;;23.05;49.00
54308;BME280;40208;39.778;2.710;2023-04-21T12:37:29;100563.59;;;22.39;49.29
54308;BME280;40208;39.778;2.710;2023-04-21T12:40:14;100495.81;;;21.95;49.35
54308;BME280;40208;39.778;2.710;2023-04-21T12:42:59;100717.16;;;23.28;49.54
54308;BME280;40208;39.778;2.710;2023-04-21T12:45:44;100660.72;;;23.05;49.20
54308;BME280;40208;39.778;2.710;2023-04-21T12:48:29;100706.53;;;23.35;49.00
54308;BME280;40208;39.778;2.710;2023-04-21T12:51:13;100672.00;;;23.01;48.34
54308;BME280;40208;39.778;2.710;2023-04-21T12:53:58;100576.34;;;22.47;49.35
54308;BME280;40208;39.778;2.710;2023-04-21T12:56:43;100712.91;;;23.25;49.32
54308;BME280;40208;39.778;2.710;2023-04-21T12:59:28;100644.59;;;22.86;49.29
54308;BME280;40208;39.778;2.710;2023-04-21T13:02:13;100595.97;;;22.49;48.69
54308;BME280;40208;39.778;2.710;2023-04-21T13:04:57;100672.75;;;22.93;49.16
54308;BME280;40208;39.778;2.710;2023-04-21T13:07:42;100645.91;;;22.82;48.72
54308;BME280;40208;39.778;2.710;2023-04-21T13:10:27;100603.09;;;22.50;49.70
54308;BME280;40208;39.778;2.710;2023-04-21T13:13:12;100647.69;;;22.73;48.88
54308;BME280;40208;39.778;2.710;2023-04-21T13:15:57;100505.59;;;21.96;49.63
54308;BME280;40208;39.778;2.710;2023-04-21T13:18:43;100609.03;;;22.53;50.12
54308;BME280;40208;39.778;2.710;2023-04-21T13:21:28;100645.19;;;22.80;49.34
54308;BME280;40208;39.778;2.710;2023-04-21T13:24:13;100713.13;;;23.14;49.42
54308;BME280;40208;39.778;2.710;2023-04-21T13:26:59;100692.38;;;23.05;50.64
54308;BME280;40208;39.778;2.710;2023-04-21T13:29:46;100596.38;;;22.54;50.24
54308;BME280;40208;39.778;2.710;2023-04-21T13:32:32;100698.66;;;23.23;50.22
54308;BME280;40208;39.778;2.710;2023-04-21T13:35:17;100563.28;;;22.42;49.60
54308;BME280;40208;39.778;2.710;2023-04-21T13:38:02;100547.94;;;22.33;49.70
54308;BME280;40208;39.778;2.710;2023-04-21T13:40:47;100578.84;;;22.58;50.28
54308;BME280;40208;39.778;2.710;2023-04-21T13:43:32;100539.84;;;22.33;50.53
54308;BME280;40208;39.778;2.710;2023-04-21T13:46:18;100688.44;;;23.17;50.91
54308;BME280;40208;39.778;2.710;2023-04-21T13:49:03;100543.56;;;22.32;51.12
54308;BME280;40208;39.778;2.710;2023-04-21T13:51:49;100599.88;;;22.64;51.35
54308;BME280;40208;39.778;2.710;2023-04-21T13:54:34;100566.44;;;22.37;51.02
54308;BME280;40208;39.778;2.710;2023-04-21T13:57:19;100682.84;;;23.01;51.71
54308;BME280;40208;39.778;2.710;2023-04-21T14:00:05;100599.06;;;22.54;52.11
54308;BME280;40208;39.778;2.710;2023-04-21T14:02:51;100561.78;;;22.30;52.48
54308;BME280;40208;39.778;2.710;2023-04-21T14:05:36;100685.94;;;23.06;52.38
54308;BME280;40208;39.778;2.710;2023-04-21T14:08:21;100547.88;;;22.25;52.69
54308;BME280;40208;39.778;2.710;2023-04-21T14:11:06;100637.94;;;22.80;52.30
54308;BME280;40208;39.778;2.710;2023-04-21T14:13:51;100675.75;;;23.00;53.34
54308;BME280;40208;39.778;2.710;2023-04-21T14:16:36;100652.47;;;22.79;52.82
54308;BME280;40208;39.778;2.710;2023-04-21T14:19:21;100671.50;;;22.88;53.11
54308;BME280;40208;39.778;2.710;2023-04-21T14:22:06;100636.03;;;22.63;53.76
54308;BME280;40208;39.778;2.710;2023-04-21T14:24:51;100665.47;;;22.76;53.97
54308;BME280;40208;39.778;2.710;2023-04-21T14:27:36;100672.25;;;22.80;53.87
54308;BME280;40208;39.778;2.710;2023-04-21T14:30:21;100659.22;;;22.65;54.28
54308;BME280;40208;39.778;2.710;2023-04-21T14:33:06;100545.41;;;21.94;53.73
54308;BME280;40208;39.778;2.710;2023-04-21T14:35:51;100684.22;;;22.77;53.83
54308;BME280;40208;39.778;2.710;2023-04-21T14:38:36;100647.22;;;22.50;54.11
54308;BME280;40208;39.778;2.710;2023-04-21T14:41:21;100550.97;;;21.92;53.60